createdAt,value
2018-09-18T00:00:03.008Z,11.23
2018-09-18T00:02:31.371Z,13.27
2018-09-18T00:04:59.749Z,12.67
2018-09-18T00:07:28.189Z,11.73
2018-09-18T00:09:56.525Z,12.77
2018-09-18T00:12:24.929Z,15.30
2018-09-18T00:14:53.283Z,12.37
2018-09-18T00:17:21.698Z,13.40
2018-09-18T00:19:50.064Z,18.83
2018-09-18T00:22:18.541Z,19.03
2018-09-18T00:24:46.889Z,11.90
2018-09-18T00:27:15.234Z,13.50
2018-09-18T00:29:43.592Z,12.17
2018-09-18T00:32:11.925Z,12.47
2018-09-18T00:34:40.283Z,10.80
2018-09-18T00:37:08.635Z,14.43
2018-09-18T00:39:37.015Z,14.97
2018-09-18T00:42:05.366Z,13.93
2018-09-18T00:44:33.704Z,12.13
2018-09-18T00:47:02.035Z,13.27
2018-09-18T00:49:30.388Z,12.53
2018-09-18T00:51:58.720Z,11.23
2018-09-18T00:54:27.132Z,15.50
2018-09-18T00:56:55.481Z,13.50
2018-09-18T00:59:23.833Z,14.07
2018-09-18T01:01:52.732Z,14.43
2018-09-18T01:04:21.091Z,11.03
2018-09-18T01:06:49.435Z,13.97
2018-09-18T01:09:17.848Z,10.97
2018-09-18T01:11:46.191Z,10.77
2018-09-18T01:14:14.536Z,9.83
2018-09-18T01:16:42.884Z,11.50
2018-09-18T01:19:11.248Z,9.87
2018-09-18T01:21:39.635Z,11.13
2018-09-18T01:24:07.970Z,11.83
2018-09-18T01:26:36.356Z,7.87
2018-09-18T01:29:04.724Z,12.97
2018-09-18T01:31:33.072Z,14.00
2018-09-18T01:34:01.401Z,10.10
2018-09-18T01:36:29.757Z,15.03
2018-09-18T01:45:58.287Z,9.03
2018-09-18T01:48:26.632Z,9.53
2018-09-18T01:50:54.970Z,11.37
2018-09-18T01:53:23.314Z,7.33
2018-09-18T01:55:51.660Z,7.57
2018-09-18T01:58:20.004Z,13.00
2018-09-18T02:00:48.383Z,10.13
2018-09-18T02:03:16.760Z,11.20
2018-09-18T02:05:45.135Z,10.07
2018-09-18T02:08:13.482Z,10.60
2018-09-18T02:10:41.850Z,9.27
2018-09-18T02:13:10.224Z,9.43
2018-09-18T02:15:38.572Z,7.63
2018-09-18T02:18:06.907Z,10.07
2018-09-18T02:20:35.250Z,7.77
2018-09-18T02:23:03.750Z,8.80
2018-09-18T02:25:32.104Z,10.63
2018-09-18T02:28:00.436Z,9.40
2018-09-18T02:30:28.813Z,9.73
2018-09-18T02:32:57.167Z,11.57
2018-09-18T02:35:25.471Z,11.47
2018-09-18T02:37:53.801Z,9.93
2018-09-18T02:40:22.154Z,9.70
2018-09-18T02:42:50.556Z,7.23
2018-09-18T02:45:18.901Z,13.93
2018-09-18T02:47:47.256Z,9.03
2018-09-18T02:50:15.692Z,9.20
2018-09-18T02:52:44.044Z,10.80
2018-09-18T02:55:12.407Z,10.87
2018-09-18T02:57:40.760Z,10.27
2018-09-18T03:00:09.112Z,11.37
2018-09-18T03:02:37.459Z,9.30
2018-09-18T03:05:05.843Z,8.67
2018-09-18T03:07:34.187Z,9.07
2018-09-18T03:10:02.552Z,8.90
2018-09-18T03:12:30.899Z,12.73
2018-09-18T03:14:59.230Z,9.30
2018-09-18T03:17:27.626Z,9.73
2018-09-18T03:19:55.958Z,11.00
2018-09-18T03:22:24.314Z,7.13
2018-09-18T03:24:52.661Z,11.57
2018-09-18T03:27:21.025Z,11.00
2018-09-18T03:29:49.384Z,12.67
2018-09-18T03:32:17.749Z,7.50
2018-09-18T03:34:46.114Z,11.50
2018-09-18T03:37:14.493Z,11.37
2018-09-18T03:39:42.840Z,10.30
2018-09-18T03:42:11.300Z,11.13
2018-09-18T03:44:39.701Z,13.67
2018-09-18T03:47:08.069Z,9.77
2018-09-18T03:49:36.421Z,9.60
2018-09-18T03:52:04.763Z,10.40
2018-09-18T03:54:33.111Z,9.40
2018-09-18T03:57:01.459Z,9.80
2018-09-18T03:59:29.900Z,15.70
2018-09-18T04:01:58.295Z,15.13
2018-09-18T04:04:26.661Z,10.40
2018-09-18T04:06:55.009Z,9.87
2018-09-18T04:09:23.388Z,10.83
2018-09-18T04:11:51.760Z,10.73
2018-09-18T04:14:20.095Z,8.50
2018-09-18T04:16:48.416Z,10.67
2018-09-18T04:19:16.760Z,11.40
2018-09-18T04:21:45.107Z,11.77
2018-09-18T04:24:13.461Z,11.17
2018-09-18T04:26:42.215Z,12.37
2018-09-18T04:29:10.912Z,13.47
2018-09-18T04:31:40.795Z,9.80
2018-09-18T04:34:09.285Z,12.13
2018-09-18T04:36:37.676Z,11.43
2018-09-18T04:39:10.311Z,11.03
2018-09-18T04:41:38.732Z,10.50
2018-09-18T04:44:07.672Z,14.43
2018-09-18T04:46:36.031Z,11.33
2018-09-18T04:49:04.473Z,14.93
2018-09-18T04:51:32.861Z,14.57
2018-09-18T04:54:01.224Z,12.30
2018-09-18T04:56:29.930Z,14.27
2018-09-18T04:58:58.363Z,12.50
2018-09-18T05:01:26.727Z,11.57
2018-09-18T05:03:55.081Z,13.07
2018-09-18T05:06:23.431Z,15.67
2018-09-18T05:08:51.788Z,11.10
2018-09-18T05:11:20.187Z,11.57
2018-09-18T05:13:48.681Z,12.80
2018-09-18T05:16:17.003Z,11.87
2018-09-18T05:18:45.351Z,16.57
2018-09-18T05:21:13.708Z,16.03
2018-09-18T05:23:42.065Z,12.77
2018-09-18T05:26:10.476Z,13.03
2018-09-18T05:28:39.154Z,17.43
2018-09-18T05:31:07.505Z,17.10
2018-09-18T05:33:35.859Z,11.07
2018-09-18T05:36:04.195Z,11.87
2018-09-18T05:38:32.547Z,12.60
2018-09-18T05:41:01.027Z,13.67
2018-09-18T05:43:29.431Z,14.67
2018-09-18T05:45:57.792Z,15.07
2018-09-18T05:48:26.215Z,14.47
2018-09-18T05:50:54.562Z,17.30
2018-09-18T05:53:22.921Z,13.33
2018-09-18T05:55:51.300Z,15.60
2018-09-18T05:58:19.644Z,16.70
2018-09-18T06:00:48.041Z,17.20
2018-09-18T06:03:16.375Z,16.27
2018-09-18T06:05:44.733Z,14.53
2018-09-18T06:08:13.057Z,14.03
2018-09-18T06:10:41.410Z,19.50
2018-09-18T06:13:09.833Z,18.40
2018-09-18T06:15:38.208Z,18.23
2018-09-18T06:18:06.556Z,15.23
2018-09-18T06:20:34.936Z,15.53
2018-09-18T06:23:03.314Z,15.63
2018-09-18T06:25:31.683Z,16.53
2018-09-18T06:28:00.026Z,19.13
2018-09-18T06:30:28.356Z,17.47
2018-09-18T06:32:56.718Z,16.37
2018-09-18T06:35:25.060Z,20.37
2018-09-18T06:37:53.386Z,12.47
2018-09-18T06:40:21.769Z,18.67
2018-09-18T06:42:50.125Z,21.07
2018-09-18T06:45:18.487Z,15.37
2018-09-18T06:47:46.855Z,21.10
2018-09-18T06:50:15.194Z,17.27
2018-09-18T06:52:43.567Z,17.23
2018-09-18T06:55:11.933Z,21.17
2018-09-18T06:57:40.340Z,14.40
2018-09-18T07:00:08.688Z,17.33
2018-09-18T07:02:37.052Z,17.47
2018-09-18T07:05:05.404Z,12.67
2018-09-18T07:07:33.798Z,14.07
2018-09-18T07:10:02.162Z,13.00
2018-09-18T07:12:30.774Z,11.43
2018-09-18T07:14:59.259Z,14.30
2018-09-18T07:17:27.601Z,13.03
2018-09-18T07:19:55.964Z,10.67
2018-09-18T07:22:24.364Z,12.97
2018-09-18T07:24:52.807Z,16.70
2018-09-18T07:27:21.160Z,13.90
2018-09-18T07:29:49.532Z,18.60
2018-09-18T07:32:17.877Z,24.97
2018-09-18T07:34:46.235Z,12.80
2018-09-18T07:37:14.646Z,13.33
2018-09-18T07:39:42.986Z,13.13
2018-09-18T07:42:11.329Z,13.73
2018-09-18T07:44:39.920Z,12.73
2018-09-18T07:47:08.509Z,14.57
2018-09-18T07:49:36.853Z,13.27
2018-09-18T07:52:05.278Z,10.70
2018-09-18T07:54:33.622Z,12.03
2018-09-18T07:57:02.002Z,11.90
2018-09-18T07:59:30.386Z,12.00
2018-09-18T08:01:58.843Z,9.40
2018-09-18T08:04:27.189Z,10.90
2018-09-18T08:06:55.545Z,12.23
2018-09-18T08:09:23.913Z,10.73
2018-09-18T08:11:52.360Z,13.30
2018-09-18T08:14:20.671Z,15.37
2018-09-18T08:16:49.022Z,13.17
2018-09-18T08:19:17.429Z,9.03
2018-09-18T08:21:45.798Z,14.10
2018-09-18T08:24:14.161Z,16.90
2018-09-18T08:26:42.499Z,13.50
2018-09-18T08:29:10.856Z,13.20
2018-09-18T08:31:39.247Z,14.87
2018-09-18T08:34:07.592Z,12.37
2018-09-18T08:36:35.944Z,11.33
2018-09-18T08:39:06.095Z,12.93
2018-09-18T08:41:34.502Z,9.60
2018-09-18T08:44:02.884Z,16.83
2018-09-18T08:46:31.267Z,10.97
2018-09-18T08:48:59.660Z,15.33
2018-09-18T08:51:28.693Z,13.15
2018-09-18T08:53:57.069Z,14.65
2018-09-18T08:56:25.445Z,12.73
2018-09-18T08:58:53.957Z,10.68
2018-09-18T09:01:22.357Z,14.30
2018-09-18T09:03:50.741Z,14.98
2018-09-18T09:06:19.131Z,9.68
2018-09-18T09:08:47.605Z,18.27
2018-09-18T09:11:15.895Z,10.75
2018-09-18T09:13:44.305Z,11.83
2018-09-18T09:16:12.805Z,15.13
2018-09-18T09:18:41.188Z,13.20
2018-09-18T09:21:09.609Z,14.93
2018-09-18T09:23:37.948Z,8.70
2018-09-18T09:26:06.970Z,15.98
2018-09-18T09:28:35.598Z,12.05
2018-09-18T09:31:04.492Z,12.70
2018-09-18T09:33:32.830Z,11.73
2018-09-18T09:36:01.227Z,18.45
2018-09-18T09:38:29.655Z,7.25
2018-09-18T09:40:58.340Z,6.58
2018-09-18T09:43:26.715Z,10.30
2018-09-18T09:45:55.114Z,12.18
2018-09-18T09:48:23.622Z,8.53
2018-09-18T09:50:51.984Z,10.58
2018-09-18T09:53:20.416Z,10.40
2018-09-18T09:55:49.087Z,11.43
2018-09-18T09:58:17.415Z,14.00
2018-09-18T10:00:51.389Z,7.72
2018-09-18T10:03:19.704Z,9.45
2018-09-18T10:05:48.045Z,5.67
2018-09-18T10:08:16.377Z,9.23
2018-09-18T10:10:44.815Z,5.95
2018-09-18T10:13:13.216Z,10.40
2018-09-18T10:15:41.553Z,6.60
2018-09-18T10:18:09.955Z,11.97
2018-09-18T10:20:38.248Z,7.95
2018-09-18T10:23:06.801Z,6.00
2018-09-18T10:25:35.139Z,8.23
2018-09-18T10:28:03.603Z,7.87
2018-09-18T10:30:31.962Z,10.80
2018-09-18T10:33:00.284Z,5.10
2018-09-18T10:35:28.679Z,7.35
2018-09-18T10:37:57.008Z,8.78
2018-09-18T10:40:25.352Z,9.05
2018-09-18T10:42:53.828Z,7.33
2018-09-18T10:45:22.100Z,7.80
2018-09-18T10:47:50.461Z,8.70
2018-09-18T10:50:18.804Z,6.95
2018-09-18T10:52:47.173Z,9.88
2018-09-18T10:55:15.536Z,6.62
2018-09-18T10:57:43.871Z,9.38
2018-09-18T11:00:12.262Z,10.40
2018-09-18T11:02:40.605Z,8.15
2018-09-18T11:05:08.954Z,7.70
2018-09-18T11:07:37.376Z,5.80
2018-09-18T11:10:06.119Z,8.48
2018-09-18T11:12:34.493Z,8.40
2018-09-18T11:15:02.875Z,14.40
2018-09-18T11:17:31.725Z,9.25
2018-09-18T11:20:00.092Z,5.58
2018-09-18T11:22:28.602Z,8.88
2018-09-18T11:24:56.874Z,7.05
2018-09-18T11:27:25.179Z,6.85
2018-09-18T11:29:53.523Z,5.83
2018-09-18T11:32:21.883Z,9.18
2018-09-18T11:34:50.241Z,5.47
2018-09-18T11:37:18.587Z,10.97
2018-09-18T11:39:46.951Z,4.93
2018-09-18T11:42:15.272Z,8.30
2018-09-18T11:44:43.622Z,7.50
2018-09-18T11:47:12.821Z,5.50
2018-09-18T11:49:41.164Z,9.17
2018-09-18T11:52:09.513Z,6.13
2018-09-18T11:54:37.868Z,5.60
2018-09-18T11:57:06.217Z,7.50
2018-09-18T11:59:34.538Z,8.57
2018-09-18T12:02:02.895Z,7.90
2018-09-18T12:04:31.237Z,8.93
2018-09-18T12:06:59.584Z,8.50
2018-09-18T12:09:27.948Z,8.60
2018-09-18T12:11:56.719Z,9.13
2018-09-18T12:14:25.329Z,9.23
2018-09-18T12:16:53.668Z,5.40
2018-09-18T12:19:21.993Z,5.50
2018-09-18T12:21:50.370Z,7.30
2018-09-18T12:24:18.719Z,7.07
2018-09-18T12:26:47.056Z,8.57
2018-09-18T12:29:15.471Z,5.43
2018-09-18T12:31:43.816Z,11.80
2018-09-18T12:34:12.196Z,6.40
2018-09-18T12:36:40.619Z,5.57
2018-09-18T12:39:09.833Z,8.50
2018-09-18T12:41:38.678Z,5.63
2018-09-18T12:44:07.395Z,13.20
2018-09-18T12:46:35.700Z,5.33
2018-09-18T12:49:04.071Z,8.70
2018-09-18T12:51:32.397Z,7.30
2018-09-18T12:54:00.768Z,8.57
2018-09-18T12:56:29.116Z,9.37
2018-09-18T12:58:57.593Z,12.73
2018-09-18T13:01:25.838Z,11.23
2018-09-18T13:03:54.180Z,5.77
2018-09-18T13:06:22.687Z,7.20
2018-09-18T13:08:50.890Z,7.57
2018-09-18T13:11:19.217Z,9.63
2018-09-18T13:13:47.596Z,8.83
2018-09-18T13:16:16.000Z,11.73
2018-09-18T13:18:44.348Z,5.17
2018-09-18T13:21:12.692Z,6.73
2018-09-18T13:23:41.041Z,13.47
2018-09-18T13:26:09.558Z,6.83
2018-09-18T13:28:38.037Z,10.80
2018-09-18T13:31:06.386Z,7.80
2018-09-18T13:33:34.688Z,9.60
2018-09-18T13:36:03.022Z,7.83
2018-09-18T13:38:31.406Z,6.00
2018-09-18T13:40:59.809Z,6.30
2018-09-18T13:43:28.104Z,8.83
2018-09-18T13:45:56.461Z,14.40
2018-09-18T13:48:24.802Z,6.00
2018-09-18T13:50:53.146Z,7.10
2018-09-18T13:53:21.489Z,5.67
2018-09-18T13:55:49.899Z,7.03
2018-09-18T13:58:18.234Z,6.00
2018-09-18T14:00:46.572Z,11.37
2018-09-18T14:03:14.920Z,7.17
2018-09-18T14:05:43.254Z,7.53
2018-09-18T14:08:11.595Z,8.03
2018-09-18T14:10:39.927Z,10.57
2018-09-18T14:13:08.596Z,7.40
2018-09-18T14:15:36.903Z,8.53
2018-09-18T14:18:05.248Z,5.60
2018-09-18T14:20:33.607Z,4.17
2018-09-18T14:23:02.022Z,7.90
2018-09-18T14:25:30.379Z,6.03
2018-09-18T14:27:58.713Z,10.23
2018-09-18T14:30:27.040Z,9.37
2018-09-18T14:32:55.484Z,8.37
2018-09-18T14:35:23.877Z,12.90
2018-09-18T14:37:52.222Z,9.27
2018-09-18T14:40:20.723Z,12.37
2018-09-18T14:42:49.058Z,6.63
2018-09-18T14:45:17.426Z,4.37
2018-09-18T14:47:45.787Z,9.10
2018-09-18T14:50:14.042Z,9.83
2018-09-18T14:52:42.473Z,7.47
2018-09-18T14:55:10.856Z,6.23
2018-09-18T14:57:39.211Z,6.33
2018-09-18T15:00:07.611Z,8.57
2018-09-18T15:02:35.972Z,5.30
2018-09-18T15:05:04.302Z,8.57
2018-09-18T15:07:32.627Z,12.03
2018-09-18T15:10:00.937Z,6.10
2018-09-18T15:12:29.257Z,6.77
2018-09-18T15:14:57.593Z,6.93
2018-09-18T15:17:25.907Z,6.00
2018-09-18T15:19:54.287Z,8.83
2018-09-18T15:22:22.716Z,5.30
2018-09-18T15:24:51.030Z,8.57
2018-09-18T15:27:19.435Z,8.87
2018-09-18T15:29:47.771Z,12.13
2018-09-18T15:32:16.176Z,3.93
2018-09-18T15:34:44.550Z,5.77
2018-09-18T15:37:13.342Z,9.77
2018-09-18T15:39:41.841Z,8.20
2018-09-18T15:42:10.147Z,8.20
2018-09-18T15:44:38.497Z,6.60
2018-09-18T15:47:06.860Z,11.23
2018-09-18T15:49:35.810Z,7.40
2018-09-18T15:52:04.236Z,8.73
2018-09-18T15:54:32.539Z,9.50
2018-09-18T15:57:00.896Z,10.10
2018-09-18T15:59:29.209Z,4.30
2018-09-18T16:01:57.540Z,5.60
2018-09-18T16:04:25.860Z,5.83
2018-09-18T16:06:54.209Z,4.87
2018-09-18T16:09:22.577Z,7.77
2018-09-18T16:11:50.925Z,5.43
2018-09-18T16:14:19.312Z,5.67
2018-09-18T16:16:47.672Z,7.03
2018-09-18T16:19:16.438Z,9.30
2018-09-18T16:21:44.924Z,8.10
2018-09-18T16:24:13.311Z,4.73
2018-09-18T16:26:41.711Z,4.90
2018-09-18T16:29:10.198Z,14.70
2018-09-18T16:31:38.574Z,9.10
2018-09-18T16:34:06.920Z,10.83
2018-09-18T16:36:35.267Z,7.27
2018-09-18T16:39:03.672Z,9.47
2018-09-18T16:41:32.034Z,8.03
2018-09-18T16:44:00.357Z,6.90
2018-09-18T16:46:28.708Z,9.13
2018-09-18T16:48:57.187Z,6.73
2018-09-18T16:51:25.553Z,7.10
2018-09-18T16:53:53.904Z,11.97
2018-09-18T16:56:22.215Z,7.33
2018-09-18T16:58:50.606Z,10.90
2018-09-18T17:01:18.954Z,8.20
2018-09-18T17:03:47.294Z,9.23
2018-09-18T17:06:15.620Z,10.13
2018-09-18T17:08:43.945Z,8.80
2018-09-18T17:11:12.303Z,6.50
2018-09-18T17:13:40.959Z,9.70
2018-09-18T17:16:09.307Z,31.93
2018-09-18T17:18:37.697Z,27.23
2018-09-18T17:21:06.599Z,21.57
2018-09-18T17:23:35.431Z,9.23
2018-09-18T17:26:03.765Z,12.50
2018-09-18T17:28:32.201Z,11.90
2018-09-18T17:31:00.466Z,12.30
2018-09-18T17:33:28.859Z,15.30
2018-09-18T17:35:57.220Z,13.43
2018-09-18T17:38:25.603Z,29.57
2018-09-18T17:40:53.950Z,33.03
2018-09-18T17:43:22.547Z,27.00
2018-09-18T17:45:50.978Z,18.43
2018-09-18T17:48:19.338Z,26.77
2018-09-18T17:50:47.762Z,19.70
2018-09-18T17:53:16.075Z,15.90
2018-09-18T17:55:44.400Z,15.97
2018-09-18T17:58:12.776Z,18.87
2018-09-18T18:00:41.121Z,24.07
2018-09-18T18:03:09.513Z,14.97
2018-09-18T18:05:37.879Z,16.27
2018-09-18T18:08:06.265Z,14.67
2018-09-18T18:10:34.900Z,16.03
2018-09-18T18:13:03.251Z,37.50
2018-09-18T18:15:31.574Z,68.53
2018-09-18T18:18:00.013Z,31.83
2018-09-18T18:20:28.437Z,26.03
2018-09-18T18:22:56.735Z,20.17
2018-09-18T18:25:25.855Z,15.37
2018-09-18T18:27:54.196Z,44.30
2018-09-18T18:30:22.539Z,29.63
2018-09-18T18:32:51.146Z,23.40
2018-09-18T18:35:19.532Z,25.63
2018-09-18T18:37:47.880Z,26.77
2018-09-18T18:40:16.307Z,20.47
2018-09-18T18:42:44.691Z,18.97
2018-09-18T18:45:13.032Z,21.63
2018-09-18T18:47:41.564Z,18.13
2018-09-18T18:50:10.311Z,20.63
2018-09-18T18:52:38.676Z,16.97
2018-09-18T18:55:07.484Z,20.57
2018-09-18T18:57:35.828Z,19.80
2018-09-18T19:00:04.348Z,14.97
2018-09-18T19:02:32.677Z,18.87
2018-09-18T19:05:01.061Z,15.50
2018-09-18T19:07:29.971Z,24.83
2018-09-18T19:09:58.386Z,24.47
2018-09-18T19:12:27.029Z,22.47
2018-09-18T19:14:57.180Z,17.73
2018-09-18T19:17:27.132Z,14.57
2018-09-18T19:19:57.252Z,13.50
2018-09-18T19:22:26.605Z,14.77
2018-09-18T19:24:56.799Z,20.20
2018-09-18T19:27:26.623Z,14.83
2018-09-18T19:29:56.687Z,22.87
2018-09-18T19:32:26.394Z,16.67
2018-09-18T19:34:56.669Z,17.00
2018-09-18T19:37:28.771Z,19.07
2018-09-18T19:39:58.253Z,15.00
2018-09-18T19:42:28.100Z,13.17
2018-09-18T19:44:57.686Z,15.47
2018-09-18T19:47:27.850Z,14.07
2018-09-18T19:49:56.972Z,13.70
2018-09-18T19:52:25.615Z,11.43
2018-09-18T19:54:56.713Z,8.77
2018-09-18T19:57:26.731Z,12.97
2018-09-18T19:59:56.021Z,11.23
2018-09-18T20:02:26.936Z,16.93
2018-09-18T20:04:57.257Z,12.33
2018-09-18T20:07:27.220Z,12.90
2018-09-18T20:09:58.050Z,9.87
2018-09-18T20:12:28.229Z,10.13
2018-09-18T20:14:57.589Z,13.77
2018-09-18T20:17:27.702Z,19.17
2018-09-18T20:19:58.358Z,21.23
2018-09-18T20:22:27.945Z,19.40
2018-09-18T20:24:57.131Z,17.60
2018-09-18T20:27:27.119Z,14.03
2018-09-18T20:29:57.258Z,17.20
2018-09-18T20:32:27.441Z,14.00
2018-09-18T20:34:57.885Z,15.27
2018-09-18T20:37:27.526Z,20.23
2018-09-18T20:39:56.069Z,18.47
2018-09-18T20:42:26.173Z,17.00
2018-09-18T20:44:55.877Z,13.37
2018-09-18T20:47:26.968Z,15.20
2018-09-18T20:49:57.342Z,9.77
2018-09-18T20:52:28.527Z,9.20
2018-09-18T20:54:58.323Z,12.77
2018-09-18T20:57:27.258Z,10.77
2018-09-18T20:59:57.463Z,13.73
2018-09-18T21:02:26.034Z,12.83
2018-09-18T21:04:56.249Z,11.87
2018-09-18T21:07:25.614Z,14.97
2018-09-18T21:09:55.074Z,10.03
2018-09-18T21:12:25.250Z,8.53
2018-09-18T21:14:55.011Z,10.90
2018-09-18T21:17:24.662Z,8.80
2018-09-18T21:19:54.131Z,8.70
2018-09-18T21:22:23.703Z,11.77
2018-09-18T21:25:02.404Z,12.67
2018-09-18T21:27:32.476Z,7.70
2018-09-18T21:30:02.544Z,12.90
2018-09-18T21:32:31.676Z,9.57
2018-09-18T21:35:02.527Z,10.20
2018-09-18T21:37:32.247Z,9.90
2018-09-18T21:40:01.710Z,9.30
2018-09-18T21:42:31.028Z,9.83
2018-09-18T21:45:00.688Z,7.77
2018-09-18T21:47:30.305Z,10.13
2018-09-18T21:49:59.703Z,9.53
2018-09-18T21:52:29.078Z,8.00
2018-09-18T21:54:59.502Z,9.97
2018-09-18T21:57:29.036Z,10.77
2018-09-18T21:59:58.644Z,8.67
2018-09-18T22:02:28.234Z,7.67
2018-09-18T22:04:57.923Z,12.30
2018-09-18T22:07:27.236Z,11.50
2018-09-18T22:09:57.053Z,8.70
2018-09-18T22:12:27.243Z,13.97
2018-09-18T22:14:56.762Z,8.70
2018-09-18T22:17:26.237Z,11.37
2018-09-18T22:19:55.937Z,9.80
2018-09-18T22:22:26.100Z,7.43
2018-09-18T22:24:56.873Z,9.67
2018-09-18T22:27:26.524Z,10.30
2018-09-18T22:29:56.583Z,8.27
2018-09-18T22:32:26.151Z,7.00
2018-09-18T22:34:55.186Z,12.53
2018-09-18T22:37:24.117Z,9.03
2018-09-18T22:39:53.968Z,9.90
2018-09-18T22:42:23.726Z,10.33
2018-09-18T22:44:54.172Z,10.93
2018-09-18T22:47:22.994Z,8.30
2018-09-18T22:49:53.627Z,12.20
2018-09-18T22:52:23.327Z,10.77
2018-09-18T22:54:52.252Z,10.17
2018-09-18T22:57:22.056Z,11.30
2018-09-18T22:59:51.530Z,8.93
2018-09-18T23:02:20.989Z,9.77
2018-09-18T23:04:50.592Z,13.00
2018-09-18T23:07:20.612Z,11.57
2018-09-18T23:09:49.633Z,9.60
2018-09-18T23:12:19.244Z,10.97
2018-09-18T23:14:49.188Z,8.67
2018-09-18T23:17:19.326Z,9.53
2018-09-18T23:19:49.350Z,9.13
2018-09-18T23:22:18.465Z,8.53
2018-09-18T23:24:47.713Z,7.93
2018-09-18T23:27:16.140Z,9.53
2018-09-18T23:29:44.977Z,7.63
2018-09-18T23:32:14.752Z,11.87
2018-09-18T23:34:45.255Z,9.83
2018-09-18T23:37:14.199Z,9.47
2018-09-18T23:39:44.223Z,10.00
2018-09-18T23:42:14.737Z,10.67
2018-09-18T23:44:43.965Z,12.27
2018-09-18T23:47:13.054Z,8.07
2018-09-18T23:49:41.967Z,9.13
2018-09-18T23:52:11.794Z,10.23
2018-09-18T23:54:41.652Z,9.37
2018-09-18T23:57:10.553Z,7.03
2018-09-18T23:59:39.925Z,9.43
